createdAt,value
2022-11-19T00:01:40.311Z,2.00
2022-11-19T00:06:42.365Z,1.77
2022-11-19T00:12:03.649Z,1.50
2022-11-19T00:17:05.784Z,1.55
2022-11-19T00:22:07.850Z,1.75
2022-11-19T00:27:09.989Z,1.87
2022-11-19T00:32:12.422Z,1.12
2022-11-19T00:37:14.512Z,1.20
2022-11-19T00:42:16.558Z,2.70
2022-11-19T00:47:19.049Z,1.77
2022-11-19T00:52:21.075Z,2.40
2022-11-19T00:57:23.487Z,1.43
2022-11-19T01:02:25.608Z,1.27
2022-11-19T01:07:27.676Z,2.05
2022-11-19T01:12:29.683Z,2.33
2022-11-19T01:17:31.742Z,1.83
2022-11-19T01:22:33.831Z,2.28
2022-11-19T01:27:35.896Z,1.33
2022-11-19T01:32:38.958Z,2.83
2022-11-19T01:37:41.077Z,2.45
2022-11-19T01:42:49.301Z,1.50
2022-11-19T01:47:53.647Z,3.30
2022-11-19T01:52:55.887Z,2.70
2022-11-19T01:58:01.313Z,2.47
2022-11-19T02:03:03.410Z,2.25
2022-11-19T02:08:08.887Z,2.40
2022-11-19T02:13:34.595Z,2.85
2022-11-19T02:18:52.719Z,2.40
2022-11-19T02:24:40.384Z,2.35
2022-11-19T02:29:57.718Z,1.50
2022-11-19T02:35:28.742Z,1.50
2022-11-19T02:40:41.534Z,1.70
2022-11-19T02:45:50.247Z,1.37
2022-11-19T02:50:57.419Z,1.75
2022-11-19T02:56:10.987Z,1.75
2022-11-19T03:01:31.980Z,1.65
2022-11-19T03:06:34.799Z,1.90
2022-11-19T03:16:58.537Z,1.77
2022-11-19T03:22:16.312Z,2.35
2022-11-19T03:27:29.863Z,1.60
2022-11-19T03:32:38.009Z,1.00
2022-11-19T03:37:42.090Z,1.60
2022-11-19T03:42:46.788Z,1.75
2022-11-19T03:47:50.252Z,1.90
2022-11-19T03:52:52.383Z,1.20
2022-11-19T03:57:54.457Z,2.80
2022-11-19T04:02:56.618Z,1.77
2022-11-19T04:07:58.650Z,2.22
2022-11-19T04:13:00.761Z,2.00
2022-11-19T04:18:02.820Z,2.62
2022-11-19T04:23:04.870Z,1.70
2022-11-19T04:28:06.985Z,2.42
2022-11-19T04:33:09.420Z,2.28
2022-11-19T04:38:11.441Z,2.10
2022-11-19T04:43:13.531Z,2.20
2022-11-19T04:48:15.565Z,2.20
2022-11-19T04:53:18.082Z,2.78
2022-11-19T04:58:20.293Z,2.70
2022-11-19T05:03:22.348Z,1.40
2022-11-19T05:08:24.426Z,1.80
2022-11-19T05:13:26.513Z,3.80
2022-11-19T05:18:28.525Z,3.62
2022-11-19T05:23:30.641Z,4.75
2022-11-19T05:28:38.877Z,5.20
2022-11-19T05:33:41.960Z,4.90
2022-11-19T05:38:44.021Z,4.12
2022-11-19T05:43:46.472Z,4.28
2022-11-19T05:48:48.478Z,3.72
2022-11-19T05:53:50.967Z,4.83
2022-11-19T06:03:55.239Z,3.50
2022-11-19T06:08:57.291Z,3.92
2022-11-19T06:14:00.277Z,4.18
2022-11-19T06:19:02.344Z,4.10
2022-11-19T06:24:04.557Z,3.10
2022-11-19T06:29:07.062Z,3.47
2022-11-19T06:34:09.597Z,4.50
2022-11-19T06:39:11.775Z,3.75
2022-11-19T06:44:14.233Z,3.50
2022-11-19T06:49:20.107Z,3.47
2022-11-19T06:54:22.547Z,4.75
2022-11-19T06:59:24.638Z,5.47
2022-11-19T07:04:27.170Z,5.25
2022-11-19T07:09:29.239Z,5.00
2022-11-19T07:14:31.292Z,4.95
2022-11-19T07:19:33.454Z,5.87
2022-11-19T07:24:35.953Z,4.05
2022-11-19T07:29:38.731Z,4.78
2022-11-19T07:39:42.742Z,3.83
2022-11-19T07:44:44.867Z,3.65
2022-11-19T07:49:46.834Z,3.53
2022-11-19T07:54:48.835Z,2.93
2022-11-19T07:59:51.001Z,2.22
2022-11-19T08:04:53.079Z,2.40
2022-11-19T08:09:55.198Z,2.80
2022-11-19T08:14:57.253Z,1.60
2022-11-19T08:19:59.329Z,1.95
2022-11-19T08:25:01.624Z,1.92
2022-11-19T08:30:04.505Z,2.33
2022-11-19T08:35:07.563Z,2.00
2022-11-19T08:40:09.995Z,2.65
2022-11-19T08:45:14.602Z,3.03
2022-11-19T08:50:20.914Z,2.67
2022-11-19T08:55:23.466Z,2.60
2022-11-19T09:00:25.878Z,3.17
2022-11-19T09:05:27.902Z,3.25
2022-11-19T09:10:30.308Z,3.78
2022-11-19T09:15:32.569Z,3.22
2022-11-19T09:20:35.852Z,3.55
2022-11-19T09:25:37.872Z,4.20
2022-11-19T09:30:39.966Z,4.25
2022-11-19T09:35:42.881Z,4.20
2022-11-19T09:40:47.675Z,4.70
2022-11-19T09:46:05.972Z,4.87
2022-11-19T09:51:18.897Z,4.90
2022-11-19T09:56:30.711Z,4.30
2022-11-19T10:01:35.766Z,4.50
2022-11-19T10:06:56.832Z,5.10
2022-11-19T10:12:24.311Z,4.20
2022-11-19T10:17:35.110Z,5.50
2022-11-19T10:23:03.339Z,4.50
2022-11-19T10:28:14.722Z,4.63
2022-11-19T10:33:40.270Z,4.70
2022-11-19T10:38:51.292Z,4.35
2022-11-19T10:44:00.596Z,4.50
2022-11-19T10:49:04.003Z,3.70
2022-11-19T10:54:21.261Z,4.00
2022-11-19T10:59:26.216Z,4.00
2022-11-19T11:04:30.093Z,3.30
2022-11-19T11:09:34.005Z,3.15
2022-11-19T11:14:51.930Z,3.90
2022-11-19T11:20:05.559Z,3.00
2022-11-19T11:25:26.839Z,4.05
2022-11-19T11:30:28.931Z,3.17
2022-11-19T11:35:33.993Z,3.28
2022-11-19T11:40:36.893Z,3.80
2022-11-19T11:45:39.173Z,3.75
2022-11-19T11:50:45.826Z,3.37
2022-11-19T11:56:01.103Z,2.45
2022-11-19T12:01:20.238Z,2.45
2022-11-19T12:06:47.782Z,2.25
2022-11-19T12:12:01.233Z,3.00
2022-11-19T12:17:42.922Z,3.05
2022-11-19T12:22:55.836Z,2.95
2022-11-19T12:28:19.346Z,2.37
2022-11-19T12:33:49.034Z,3.37
2022-11-19T12:39:09.249Z,2.95
2022-11-19T12:44:47.348Z,3.25
2022-11-19T12:50:22.033Z,3.80
2022-11-19T12:55:34.592Z,3.35
2022-11-19T13:00:46.841Z,3.42
2022-11-19T13:05:49.479Z,3.45
2022-11-19T13:11:04.352Z,2.80
2022-11-19T13:16:14.439Z,2.85
2022-11-19T13:21:42.497Z,2.30
2022-11-19T13:26:44.712Z,3.15
2022-11-19T13:31:59.883Z,2.87
2022-11-19T13:37:12.817Z,2.50
2022-11-19T13:42:35.540Z,3.55
2022-11-19T13:47:58.248Z,3.73
2022-11-19T13:53:18.939Z,4.07
2022-11-19T13:58:40.516Z,3.20
2022-11-19T14:04:23.641Z,4.70
2022-11-19T14:09:49.605Z,4.20
2022-11-19T14:15:25.444Z,4.85
2022-11-19T14:20:58.530Z,4.80
2022-11-19T14:26:19.321Z,5.00
2022-11-19T14:31:24.449Z,5.00
2022-11-19T14:36:46.253Z,5.50
2022-11-19T14:42:15.652Z,5.40
2022-11-19T14:47:26.308Z,4.35
2022-11-19T14:57:38.711Z,4.80
2022-11-19T15:02:46.001Z,4.80
2022-11-19T15:07:55.909Z,5.40
2022-11-19T15:13:40.765Z,4.10
2022-11-19T15:18:42.841Z,5.25
2022-11-19T15:24:17.452Z,4.05
2022-11-19T15:29:53.607Z,5.05
2022-11-19T15:35:15.431Z,5.30
2022-11-19T15:40:23.692Z,4.45
2022-11-19T15:45:30.256Z,4.60
2022-11-19T15:50:32.446Z,4.80
2022-11-19T15:55:35.611Z,5.50
2022-11-19T16:00:50.271Z,4.90
2022-11-19T16:06:07.067Z,5.20
2022-11-19T16:11:27.762Z,5.45
2022-11-19T16:16:48.770Z,6.50
2022-11-19T16:21:57.809Z,6.85
2022-11-19T16:27:02.547Z,8.15
2022-11-19T16:32:05.223Z,7.85
2022-11-19T16:42:18.112Z,6.93
2022-11-19T16:47:32.468Z,7.20
2022-11-19T16:52:41.744Z,6.33
2022-11-19T16:57:55.963Z,6.30
2022-11-19T17:02:58.315Z,7.30
2022-11-19T17:08:06.633Z,6.40
2022-11-19T17:13:21.041Z,6.80
2022-11-19T17:18:32.439Z,6.50
2022-11-19T17:23:46.045Z,7.17
2022-11-19T17:28:52.051Z,6.45
2022-11-19T17:33:58.899Z,7.50
2022-11-19T17:39:01.024Z,6.90
2022-11-19T17:44:22.004Z,7.95
2022-11-19T17:49:24.855Z,8.40
2022-11-19T17:59:30.168Z,8.53
2022-11-19T18:04:32.748Z,9.85
2022-11-19T18:14:37.367Z,8.33
2022-11-19T18:19:39.700Z,9.13
2022-11-19T18:24:41.838Z,9.20
2022-11-19T18:29:43.971Z,8.77
2022-11-19T18:34:46.433Z,9.98
2022-11-19T18:39:48.511Z,10.40
2022-11-19T18:44:50.950Z,9.95
2022-11-19T18:49:53.169Z,10.70
2022-11-19T18:54:55.344Z,9.70
2022-11-19T18:59:57.436Z,10.52
2022-11-19T19:04:59.941Z,11.25
2022-11-19T19:10:03.131Z,11.05
2022-11-19T19:15:05.675Z,10.43
2022-11-19T19:20:08.707Z,10.57
2022-11-19T19:25:10.833Z,11.00
2022-11-19T19:30:13.200Z,11.45
2022-11-19T19:35:15.356Z,11.32
2022-11-19T19:40:17.969Z,10.93
2022-11-19T19:50:22.085Z,11.33
2022-11-19T19:55:25.136Z,13.18
2022-11-19T20:00:27.329Z,12.10
2022-11-19T20:05:32.112Z,11.65
2022-11-19T20:10:34.164Z,12.27
2022-11-19T20:15:36.616Z,12.13
2022-11-19T20:20:38.754Z,11.90
2022-11-19T20:25:41.258Z,11.82
2022-11-19T20:30:43.383Z,12.20
2022-11-19T20:35:52.370Z,10.02
2022-11-19T20:40:55.136Z,12.13
2022-11-19T20:46:10.419Z,11.77
2022-11-19T20:51:13.470Z,12.00
2022-11-19T20:56:16.079Z,13.47
2022-11-19T21:06:20.457Z,12.53
2022-11-19T21:11:23.195Z,12.98
2022-11-19T21:16:26.616Z,13.10
2022-11-19T21:21:29.165Z,13.27
2022-11-19T21:26:31.259Z,13.15
2022-11-19T21:31:39.063Z,12.77
2022-11-19T21:36:42.888Z,14.73
2022-11-19T21:41:45.250Z,13.90
2022-11-19T21:46:47.373Z,13.38
2022-11-19T21:51:49.569Z,13.38
2022-11-19T21:56:51.679Z,13.30
2022-11-19T22:01:55.014Z,13.27
2022-11-19T22:06:57.599Z,13.23
2022-11-19T22:11:59.775Z,12.60
2022-11-19T22:17:01.936Z,14.75
2022-11-19T22:22:05.356Z,13.60
2022-11-19T22:27:07.527Z,12.90
2022-11-19T22:32:09.729Z,14.43
2022-11-19T22:37:12.085Z,14.30
2022-11-19T22:42:14.955Z,13.60
2022-11-19T22:47:16.979Z,13.20
2022-11-19T22:52:19.137Z,12.37
2022-11-19T22:57:21.600Z,11.68
2022-11-19T23:02:23.703Z,13.70
2022-11-19T23:07:25.812Z,12.25
2022-11-19T23:12:46.753Z,12.60
2022-11-19T23:17:48.916Z,13.10
2022-11-19T23:22:51.035Z,13.20
2022-11-19T23:27:53.066Z,13.00
2022-11-19T23:32:55.476Z,14.25
2022-11-19T23:37:57.546Z,12.95
2022-11-19T23:42:59.616Z,13.10
2022-11-19T23:48:01.922Z,13.52
2022-11-19T23:53:04.029Z,14.20
2022-11-19T23:58:06.097Z,14.02
